sensor_id;sensor_type;location;lat;lon;timestamp;temperature;humidity
18506;DHT22;9382;53.242;10.438;2023-08-24T00:01:33;18.40;99.90
18506;DHT22;9382;53.242;10.438;2023-08-24T00:04:00;18.40;99.90
18506;DHT22;9382;53.242;10.438;2023-08-24T00:06:27;18.40;99.90
18506;DHT22;9382;53.242;10.438;2023-08-24T00:08:53;18.40;99.90
18506;DHT22;9382;53.242;10.438;2023-08-24T00:11:20;18.40;99.90
18506;DHT22;9382;53.242;10.438;2023-08-24T00:13:47;18.40;99.90
18506;DHT22;9382;53.242;10.438;2023-08-24T00:16:18;18.40;99.90
18506;DHT22;9382;53.242;10.438;2023-08-24T00:18:46;18.40;99.90
18506;DHT22;9382;53.242;10.438;2023-08-24T00:21:13;18.30;99.90
18506;DHT22;9382;53.242;10.438;2023-08-24T00:23:42;18.30;99.90
18506;DHT22;9382;53.242;10.438;2023-08-24T00:26:09;18.30;99.90
18506;DHT22;9382;53.242;10.438;2023-08-24T00:28:35;18.30;99.90
18506;DHT22;9382;53.242;10.438;2023-08-24T00:31:02;18.30;99.90
18506;DHT22;9382;53.242;10.438;2023-08-24T00:33:30;18.30;99.90
18506;DHT22;9382;53.242;10.438;2023-08-24T00:35:59;18.30;99.90
18506;DHT22;9382;53.242;10.438;2023-08-24T00:38:26;18.30;99.90
18506;DHT22;9382;53.242;10.438;2023-08-24T00:40:53;18.30;99.90
18506;DHT22;9382;53.242;10.438;2023-08-24T00:43:20;18.30;99.90
18506;DHT22;9382;53.242;10.438;2023-08-24T00:45:49;18.20;99.90
18506;DHT22;9382;53.242;10.438;2023-08-24T00:48:16;18.20;99.90
18506;DHT22;9382;53.242;10.438;2023-08-24T00:50:44;18.20;99.90
18506;DHT22;9382;53.242;10.438;2023-08-24T00:53:11;18.20;99.90
18506;DHT22;9382;53.242;10.438;2023-08-24T00:55:38;18.10;99.90
18506;DHT22;9382;53.242;10.438;2023-08-24T00:58:05;18.00;99.90
18506;DHT22;9382;53.242;10.438;2023-08-24T01:00:32;18.00;99.90
18506;DHT22;9382;53.242;10.438;2023-08-24T01:02:59;18.00;99.90
18506;DHT22;9382;53.242;10.438;2023-08-24T01:05:27;17.90;99.90
18506;DHT22;9382;53.242;10.438;2023-08-24T01:07:56;17.90;99.90
18506;DHT22;9382;53.242;10.438;2023-08-24T01:10:24;17.90;99.90
18506;DHT22;9382;53.242;10.438;2023-08-24T01:12:59;17.90;99.90
18506;DHT22;9382;53.242;10.438;2023-08-24T01:15:32;17.90;99.90
18506;DHT22;9382;53.242;10.438;2023-08-24T01:18:05;17.80;99.90
18506;DHT22;9382;53.242;10.438;2023-08-24T01:20:33;17.80;99.90
18506;DHT22;9382;53.242;10.438;2023-08-24T01:23:08;17.80;99.90
18506;DHT22;9382;53.242;10.438;2023-08-24T01:25:51;17.80;99.90
18506;DHT22;9382;53.242;10.438;2023-08-24T01:28:20;17.80;99.90
18506;DHT22;9382;53.242;10.438;2023-08-24T01:30:47;17.80;99.90
18506;DHT22;9382;53.242;10.438;2023-08-24T01:33:14;17.70;99.90
18506;DHT22;9382;53.242;10.438;2023-08-24T01:35:41;17.70;99.90
18506;DHT22;9382;53.242;10.438;2023-08-24T01:38:08;17.70;99.90
18506;DHT22;9382;53.242;10.438;2023-08-24T01:40:48;17.60;99.90
18506;DHT22;9382;53.242;10.438;2023-08-24T01:43:20;17.60;99.90
18506;DHT22;9382;53.242;10.438;2023-08-24T01:45:48;17.50;99.90
18506;DHT22;9382;53.242;10.438;2023-08-24T01:48:16;17.40;99.90
18506;DHT22;9382;53.242;10.438;2023-08-24T01:50:44;17.30;99.90
18506;DHT22;9382;53.242;10.438;2023-08-24T01:53:12;17.30;99.90
18506;DHT22;9382;53.242;10.438;2023-08-24T01:55:38;17.20;99.90
18506;DHT22;9382;53.242;10.438;2023-08-24T01:58:05;17.10;99.90
18506;DHT22;9382;53.242;10.438;2023-08-24T02:00:33;17.10;99.90
18506;DHT22;9382;53.242;10.438;2023-08-24T02:03:00;17.00;99.90
18506;DHT22;9382;53.242;10.438;2023-08-24T02:05:27;16.90;99.90
18506;DHT22;9382;53.242;10.438;2023-08-24T02:07:54;16.90;99.90
18506;DHT22;9382;53.242;10.438;2023-08-24T02:10:22;16.80;99.90
18506;DHT22;9382;53.242;10.438;2023-08-24T02:12:49;16.80;99.90
18506;DHT22;9382;53.242;10.438;2023-08-24T02:15:16;16.80;99.90
18506;DHT22;9382;53.242;10.438;2023-08-24T02:17:44;16.70;99.90
18506;DHT22;9382;53.242;10.438;2023-08-24T02:20:11;16.70;99.90
18506;DHT22;9382;53.242;10.438;2023-08-24T02:22:38;16.70;99.90
18506;DHT22;9382;53.242;10.438;2023-08-24T02:25:05;16.70;99.90
18506;DHT22;9382;53.242;10.438;2023-08-24T02:27:32;16.70;99.90
18506;DHT22;9382;53.242;10.438;2023-08-24T02:29:59;16.70;99.90
18506;DHT22;9382;53.242;10.438;2023-08-24T02:32:26;16.70;99.90
18506;DHT22;9382;53.242;10.438;2023-08-24T02:34:54;16.60;99.90
18506;DHT22;9382;53.242;10.438;2023-08-24T02:37:21;16.60;99.90
18506;DHT22;9382;53.242;10.438;2023-08-24T02:39:47;16.60;99.90
18506;DHT22;9382;53.242;10.438;2023-08-24T02:42:14;16.50;99.90
18506;DHT22;9382;53.242;10.438;2023-08-24T02:44:41;16.50;99.90
18506;DHT22;9382;53.242;10.438;2023-08-24T02:47:07;16.40;99.90
18506;DHT22;9382;53.242;10.438;2023-08-24T02:49:34;16.40;99.90
18506;DHT22;9382;53.242;10.438;2023-08-24T02:52:02;16.30;99.90
18506;DHT22;9382;53.242;10.438;2023-08-24T02:54:29;16.30;99.90
18506;DHT22;9382;53.242;10.438;2023-08-24T02:56:56;16.30;99.90
18506;DHT22;9382;53.242;10.438;2023-08-24T02:59:22;16.20;99.90
18506;DHT22;9382;53.242;10.438;2023-08-24T03:01:49;16.20;99.90
18506;DHT22;9382;53.242;10.438;2023-08-24T03:04:16;16.20;99.90
18506;DHT22;9382;53.242;10.438;2023-08-24T03:06:43;16.20;99.90
18506;DHT22;9382;53.242;10.438;2023-08-24T03:09:12;16.20;99.90
18506;DHT22;9382;53.242;10.438;2023-08-24T03:11:39;16.10;99.90
18506;DHT22;9382;53.242;10.438;2023-08-24T03:14:05;16.10;99.90
18506;DHT22;9382;53.242;10.438;2023-08-24T03:16:32;16.10;99.90
18506;DHT22;9382;53.242;10.438;2023-08-24T03:18:59;16.10;99.90
18506;DHT22;9382;53.242;10.438;2023-08-24T03:21:25;16.10;99.90
18506;DHT22;9382;53.242;10.438;2023-08-24T03:23:52;16.00;99.90
18506;DHT22;9382;53.242;10.438;2023-08-24T03:26:20;16.00;99.90
18506;DHT22;9382;53.242;10.438;2023-08-24T03:28:48;16.00;99.90
18506;DHT22;9382;53.242;10.438;2023-08-24T03:31:15;16.00;99.90
18506;DHT22;9382;53.242;10.438;2023-08-24T03:33:42;16.00;99.90
18506;DHT22;9382;53.242;10.438;2023-08-24T03:36:09;16.00;99.90
18506;DHT22;9382;53.242;10.438;2023-08-24T03:38:36;15.90;99.90
18506;DHT22;9382;53.242;10.438;2023-08-24T03:41:03;15.90;99.90
18506;DHT22;9382;53.242;10.438;2023-08-24T03:43:33;15.90;99.90
18506;DHT22;9382;53.242;10.438;2023-08-24T03:46:00;15.80;99.90
18506;DHT22;9382;53.242;10.438;2023-08-24T03:48:28;15.80;99.90
18506;DHT22;9382;53.242;10.438;2023-08-24T03:50:54;15.80;99.90
18506;DHT22;9382;53.242;10.438;2023-08-24T03:53:21;15.70;99.90
18506;DHT22;9382;53.242;10.438;2023-08-24T03:55:48;15.70;99.90
18506;DHT22;9382;53.242;10.438;2023-08-24T03:58:15;15.70;99.90
18506;DHT22;9382;53.242;10.438;2023-08-24T04:00:44;15.60;99.90
18506;DHT22;9382;53.242;10.438;2023-08-24T04:03:11;15.60;99.90
18506;DHT22;9382;53.242;10.438;2023-08-24T04:05:37;15.60;99.90
18506;DHT22;9382;53.242;10.438;2023-08-24T04:08:04;15.50;99.90
18506;DHT22;9382;53.242;10.438;2023-08-24T04:10:32;15.50;99.90
18506;DHT22;9382;53.242;10.438;2023-08-24T04:12:59;15.50;99.90
18506;DHT22;9382;53.242;10.438;2023-08-24T04:15:26;15.50;99.90
18506;DHT22;9382;53.242;10.438;2023-08-24T04:17:54;15.50;99.90
18506;DHT22;9382;53.242;10.438;2023-08-24T04:20:20;15.50;99.90
18506;DHT22;9382;53.242;10.438;2023-08-24T04:22:47;15.60;99.90
18506;DHT22;9382;53.242;10.438;2023-08-24T04:25:14;15.60;99.90
18506;DHT22;9382;53.242;10.438;2023-08-24T04:27:41;15.60;99.90
18506;DHT22;9382;53.242;10.438;2023-08-24T04:30:08;15.70;99.90
18506;DHT22;9382;53.242;10.438;2023-08-24T04:32:37;15.70;99.90
18506;DHT22;9382;53.242;10.438;2023-08-24T04:35:06;15.80;99.90
18506;DHT22;9382;53.242;10.438;2023-08-24T04:37:33;15.80;99.90
18506;DHT22;9382;53.242;10.438;2023-08-24T04:40:00;15.80;99.90
18506;DHT22;9382;53.242;10.438;2023-08-24T04:42:26;15.90;99.90
18506;DHT22;9382;53.242;10.438;2023-08-24T04:44:53;15.90;99.90
18506;DHT22;9382;53.242;10.438;2023-08-24T04:47:20;15.90;99.90
18506;DHT22;9382;53.242;10.438;2023-08-24T04:49:46;16.00;99.90
18506;DHT22;9382;53.242;10.438;2023-08-24T04:52:14;16.10;99.90
18506;DHT22;9382;53.242;10.438;2023-08-24T04:54:41;16.10;99.90
18506;DHT22;9382;53.242;10.438;2023-08-24T04:57:08;16.20;99.90
18506;DHT22;9382;53.242;10.438;2023-08-24T04:59:35;16.20;99.90
18506;DHT22;9382;53.242;10.438;2023-08-24T05:02:01;16.30;99.90
18506;DHT22;9382;53.242;10.438;2023-08-24T05:04:28;16.30;99.90
18506;DHT22;9382;53.242;10.438;2023-08-24T05:06:55;16.40;99.90
18506;DHT22;9382;53.242;10.438;2023-08-24T05:09:23;16.40;99.90
18506;DHT22;9382;53.242;10.438;2023-08-24T05:11:50;16.50;99.90
18506;DHT22;9382;53.242;10.438;2023-08-24T05:14:16;16.60;99.90
18506;DHT22;9382;53.242;10.438;2023-08-24T05:16:43;16.60;99.90
18506;DHT22;9382;53.242;10.438;2023-08-24T05:19:10;16.70;99.90
18506;DHT22;9382;53.242;10.438;2023-08-24T05:21:36;16.70;99.90
18506;DHT22;9382;53.242;10.438;2023-08-24T05:24:03;16.80;99.90
18506;DHT22;9382;53.242;10.438;2023-08-24T05:26:32;16.80;99.90
18506;DHT22;9382;53.242;10.438;2023-08-24T05:28:58;16.80;99.90
18506;DHT22;9382;53.242;10.438;2023-08-24T05:31:25;16.80;99.90
18506;DHT22;9382;53.242;10.438;2023-08-24T05:33:52;16.90;99.90
18506;DHT22;9382;53.242;10.438;2023-08-24T05:36:18;17.00;99.90
18506;DHT22;9382;53.242;10.438;2023-08-24T05:38:45;17.00;99.90
18506;DHT22;9382;53.242;10.438;2023-08-24T05:41:12;17.10;99.90
18506;DHT22;9382;53.242;10.438;2023-08-24T05:43:41;17.20;99.90
18506;DHT22;9382;53.242;10.438;2023-08-24T05:46:08;17.20;99.90
18506;DHT22;9382;53.242;10.438;2023-08-24T05:48:35;17.30;99.90
18506;DHT22;9382;53.242;10.438;2023-08-24T05:51:01;17.30;99.90
18506;DHT22;9382;53.242;10.438;2023-08-24T05:53:28;17.30;99.90
18506;DHT22;9382;53.242;10.438;2023-08-24T05:55:58;17.40;99.90
18506;DHT22;9382;53.242;10.438;2023-08-24T05:58:25;17.40;99.90
18506;DHT22;9382;53.242;10.438;2023-08-24T06:00:57;17.30;99.90
18506;DHT22;9382;53.242;10.438;2023-08-24T06:03:24;17.20;99.90
18506;DHT22;9382;53.242;10.438;2023-08-24T06:05:51;17.20;99.90
18506;DHT22;9382;53.242;10.438;2023-08-24T06:08:18;17.20;99.90
18506;DHT22;9382;53.242;10.438;2023-08-24T06:10:45;17.10;99.90
18506;DHT22;9382;53.242;10.438;2023-08-24T06:13:12;17.10;99.90
18506;DHT22;9382;53.242;10.438;2023-08-24T06:15:39;17.20;99.90
18506;DHT22;9382;53.242;10.438;2023-08-24T06:18:07;17.20;99.90
18506;DHT22;9382;53.242;10.438;2023-08-24T06:20:34;17.40;99.90
18506;DHT22;9382;53.242;10.438;2023-08-24T06:23:00;17.50;99.90
18506;DHT22;9382;53.242;10.438;2023-08-24T06:25:27;17.60;99.90
18506;DHT22;9382;53.242;10.438;2023-08-24T06:27:54;17.80;99.90
18506;DHT22;9382;53.242;10.438;2023-08-24T06:30:21;17.90;99.90
18506;DHT22;9382;53.242;10.438;2023-08-24T06:32:47;18.10;99.90
18506;DHT22;9382;53.242;10.438;2023-08-24T06:35:16;18.30;99.90
18506;DHT22;9382;53.242;10.438;2023-08-24T06:37:43;18.50;99.90
18506;DHT22;9382;53.242;10.438;2023-08-24T06:40:11;18.70;99.90
18506;DHT22;9382;53.242;10.438;2023-08-24T06:42:38;18.90;99.90
18506;DHT22;9382;53.242;10.438;2023-08-24T06:45:06;19.00;99.90
18506;DHT22;9382;53.242;10.438;2023-08-24T06:47:35;19.20;99.90
18506;DHT22;9382;53.242;10.438;2023-08-24T06:50:02;19.30;99.90
18506;DHT22;9382;53.242;10.438;2023-08-24T06:52:30;19.50;99.90
18506;DHT22;9382;53.242;10.438;2023-08-24T06:54:56;19.60;99.90
18506;DHT22;9382;53.242;10.438;2023-08-24T06:57:23;19.80;99.90
18506;DHT22;9382;53.242;10.438;2023-08-24T06:59:50;19.80;99.90
18506;DHT22;9382;53.242;10.438;2023-08-24T07:02:17;19.90;99.90
18506;DHT22;9382;53.242;10.438;2023-08-24T07:04:44;20.00;99.90
18506;DHT22;9382;53.242;10.438;2023-08-24T07:07:11;20.10;99.90
18506;DHT22;9382;53.242;10.438;2023-08-24T07:09:39;20.20;99.90
18506;DHT22;9382;53.242;10.438;2023-08-24T07:12:06;20.20;99.90
18506;DHT22;9382;53.242;10.438;2023-08-24T07:14:35;20.10;99.90
18506;DHT22;9382;53.242;10.438;2023-08-24T07:17:02;20.10;99.90
18506;DHT22;9382;53.242;10.438;2023-08-24T07:19:29;20.20;99.90
18506;DHT22;9382;53.242;10.438;2023-08-24T07:21:55;20.40;99.90
18506;DHT22;9382;53.242;10.438;2023-08-24T07:24:22;20.50;99.90
18506;DHT22;9382;53.242;10.438;2023-08-24T07:26:53;20.60;99.90
18506;DHT22;9382;53.242;10.438;2023-08-24T07:29:20;20.70;99.90
18506;DHT22;9382;53.242;10.438;2023-08-24T07:31:47;20.80;99.90
18506;DHT22;9382;53.242;10.438;2023-08-24T07:34:14;21.00;99.90
18506;DHT22;9382;53.242;10.438;2023-08-24T07:36:40;21.20;99.90
18506;DHT22;9382;53.242;10.438;2023-08-24T07:39:07;21.20;99.90
18506;DHT22;9382;53.242;10.438;2023-08-24T07:41:34;21.30;99.90
18506;DHT22;9382;53.242;10.438;2023-08-24T07:44:02;21.40;99.90
18506;DHT22;9382;53.242;10.438;2023-08-24T07:46:29;21.40;99.90
18506;DHT22;9382;53.242;10.438;2023-08-24T07:48:56;21.50;99.90
18506;DHT22;9382;53.242;10.438;2023-08-24T07:51:23;21.60;99.90
18506;DHT22;9382;53.242;10.438;2023-08-24T07:53:49;21.60;99.90
18506;DHT22;9382;53.242;10.438;2023-08-24T07:56:17;21.60;99.90
18506;DHT22;9382;53.242;10.438;2023-08-24T07:58:44;21.90;99.90
18506;DHT22;9382;53.242;10.438;2023-08-24T08:01:12;22.00;99.90
18506;DHT22;9382;53.242;10.438;2023-08-24T08:03:39;22.20;99.90
18506;DHT22;9382;53.242;10.438;2023-08-24T08:06:06;22.40;99.90
18506;DHT22;9382;53.242;10.438;2023-08-24T08:08:32;22.40;99.90
18506;DHT22;9382;53.242;10.438;2023-08-24T08:11:00;22.40;99.90
18506;DHT22;9382;53.242;10.438;2023-08-24T08:13:28;22.50;99.90
18506;DHT22;9382;53.242;10.438;2023-08-24T08:16:00;22.50;99.90
